Time;durP1;ratioP1;P1;durP2;ratioP2;P2;SDS_P1;SDS_P2;PMS_P1;PMS_P2;Temp;Humidity;BMP_temperature;BMP_pressure;BME280_temperature;BME280_humidity;BME280_pressure;Samples;Min_cycle;Max_cycle;Signal;HPM_P1;HPM_P2
2021/04/02 00:02:08;;;;;;;9.43;3.03;;;8.10;99.90;;;;;;4976674;28;20594;-77
2021/04/02 00:04:33;;;;;;;0.90;0.90;;;8.00;99.90;;;;;;4992609;28;20144;-76
2021/04/02 00:06:59;;;;;;;0.25;0.25;;;8.00;99.90;;;;;;4994034;28;20181;-76
2021/04/02 00:09:25;;;;;;;0.50;0.50;;;7.90;99.90;;;;;;4992491;28;20197;-76
2021/04/02 00:11:50;;;;;;;1.45;0.55;;;7.70;99.90;;;;;;4990467;28;20174;-77
2021/04/02 00:14:16;;;;;;;1.38;1.25;;;7.80;99.90;;;;;;4989797;28;20173;-76
2021/04/02 00:16:42;;;;;;;2.78;0.68;;;7.80;99.90;;;;;;4991908;28;20236;-77
2021/04/02 00:19:07;;;;;;;0.80;0.80;;;7.80;99.90;;;;;;4974252;28;20150;-77
2021/04/02 00:21:33;;;;;;;0.32;0.32;;;7.80;99.90;;;;;;4991835;28;20202;-75
2021/04/02 00:23:59;;;;;;;0.77;0.77;;;7.80;99.90;;;;;;4976595;28;20146;-76
2021/04/02 00:26:25;;;;;;;0.52;0.52;;;7.90;99.90;;;;;;4992634;28;20197;-76
2021/04/02 00:28:54;;;;;;;5.60;1.17;;;7.90;99.90;;;;;;4975341;28;20162;-76
2021/04/02 00:31:21;;;;;;;0.60;0.60;;;7.90;99.90;;;;;;4992060;28;20529;-77
2021/04/02 00:33:47;;;;;;;0.45;0.45;;;7.70;99.90;;;;;;4991271;28;20193;-76
2021/04/02 00:36:13;;;;;;;2.65;0.47;;;7.70;99.90;;;;;;4993286;28;20174;-77
2021/04/02 00:38:38;;;;;;;1.50;1.40;;;7.60;99.90;;;;;;4993929;28;20280;-76
2021/04/02 00:41:07;;;;;;;0.77;0.77;;;7.70;99.90;;;;;;4992613;28;20202;-76
2021/04/02 00:43:35;;;;;;;0.25;0.25;;;7.60;99.90;;;;;;4973769;28;20169;-77
2021/04/02 00:46:01;;;;;;;0.17;0.17;;;7.50;99.90;;;;;;4991908;28;20212;-77
2021/04/02 00:48:27;;;;;;;0.85;0.85;;;7.40;99.90;;;;;;4963880;28;20189;-78
2021/04/02 00:51:05;;;;;;;0.82;0.82;;;7.40;99.90;;;;;;4974571;28;20212;-76
2021/04/02 00:53:34;;;;;;;0.60;0.60;;;7.40;99.90;;;;;;4974190;28;20178;-77
2021/04/02 00:56:01;;;;;;;0.80;0.73;;;7.50;99.90;;;;;;4974121;28;20173;-76
2021/04/02 00:58:32;;;;;;;0.68;0.68;;;7.60;99.90;;;;;;4974228;28;20234;-77
2021/04/02 01:00:59;;;;;;;0.22;0.22;;;7.40;99.90;;;;;;4956723;28;20549;-77
2021/04/02 01:03:25;;;;;;;0.40;0.40;;;7.50;99.90;;;;;;4965508;28;20166;-76
2021/04/02 01:05:53;;;;;;;0.45;0.45;;;7.50;99.90;;;;;;4991029;28;20174;-76
2021/04/02 01:08:25;;;;;;;2.30;1.10;;;7.50;99.90;;;;;;4990601;28;20186;-76
2021/04/02 01:10:53;;;;;;;1.90;1.73;;;7.40;99.90;;;;;;4990060;28;20190;-75
2021/04/02 01:13:57;;;;;;;0.57;0.57;;;7.40;99.90;;;;;;4991980;28;20174;-75
2021/04/02 01:16:31;;;;;;;1.08;0.98;;;7.40;99.90;;;;;;4987543;28;20181;-77
2021/04/02 01:19:26;;;;;;;0.38;0.38;;;7.30;99.90;;;;;;4991746;28;20185;-76
2021/04/02 01:22:18;;;;;;;1.38;0.75;;;7.20;99.90;;;;;;4992021;28;20185;-75
2021/04/02 01:25:05;;;;;;;2.92;1.38;;;7.20;99.90;;;;;;4993535;28;20173;-76
2021/04/02 01:28:08;;;;;;;0.40;0.40;;;7.10;99.90;;;;;;4976592;28;20205;-76
2021/04/02 01:30:36;;;;;;;5.30;1.60;;;7.00;99.90;;;;;;4993107;28;20168;-76
2021/04/02 01:33:04;;;;;;;2.08;1.45;;;7.00;99.90;;;;;;4991855;28;20253;-76
2021/04/02 01:35:32;;;;;;;0.85;0.85;;;7.00;99.90;;;;;;4992815;28;20234;-76
2021/04/02 01:38:03;;;;;;;1.55;1.02;;;6.80;99.90;;;;;;4975814;28;20205;-77
2021/04/02 01:40:31;;;;;;;0.40;0.40;;;6.80;99.90;;;;;;4993028;28;20229;-76
2021/04/02 01:43:01;;;;;;;1.40;0.73;;;6.80;99.90;;;;;;4993052;28;20218;-76
2021/04/02 01:45:28;;;;;;;0.20;0.20;;;6.70;99.90;;;;;;4993184;28;20185;-76
2021/04/02 01:47:55;;;;;;;1.08;1.05;;;6.90;99.90;;;;;;4975931;28;20186;-76
2021/04/02 01:50:21;;;;;;;3.10;0.80;;;6.80;99.90;;;;;;4994025;28;20195;-75
2021/04/02 01:52:49;;;;;;;0.60;0.60;;;6.70;99.90;;;;;;4995817;28;20205;-76
2021/04/02 01:55:16;;;;;;;0.30;0.30;;;6.70;99.90;;;;;;4996077;28;20177;-76
2021/04/02 01:57:45;;;;;;;0.40;0.40;;;6.70;99.90;;;;;;4997193;28;20190;-75
2021/04/02 02:00:15;;;;;;;1.02;1.02;;;6.60;99.90;;;;;;4996502;28;20583;-76
2021/04/02 02:02:42;;;;;;;0.38;0.38;;;6.70;99.90;;;;;;4976066;28;20177;-77
2021/04/02 02:05:10;;;;;;;0.90;0.90;;;6.80;99.90;;;;;;4976900;28;20512;-76
2021/04/02 02:07:40;;;;;;;0.45;0.45;;;6.90;99.90;;;;;;4959440;28;20245;-76
2021/04/02 02:10:08;;;;;;;1.08;0.98;;;6.70;99.90;;;;;;4959525;28;20176;-78
2021/04/02 02:12:37;;;;;;;1.65;0.90;;;6.70;99.90;;;;;;4977077;28;20173;-77
2021/04/02 02:15:05;;;;;;;1.08;0.75;;;6.60;99.90;;;;;;4976807;28;20170;-76
2021/04/02 02:17:31;;;;;;;0.63;0.63;;;6.50;99.90;;;;;;4959271;28;20193;-78
2021/04/02 02:20:05;;;;;;;0.20;0.20;;;6.60;99.90;;;;;;4995961;28;20233;-76
2021/04/02 02:22:31;;;;;;;0.70;0.70;;;6.60;99.90;;;;;;4987501;28;20170;-75
2021/04/02 02:24:57;;;;;;;0.68;0.68;;;6.50;99.90;;;;;;4976308;29;20159;-76
2021/04/02 02:27:23;;;;;;;2.83;2.05;;;6.50;99.90;;;;;;4975497;29;20178;-76
2021/04/02 02:29:49;;;;;;;0.68;0.68;;;6.50;99.90;;;;;;4976619;29;20201;-77
2021/04/02 02:32:15;;;;;;;0.98;0.98;;;6.40;99.90;;;;;;4977053;29;20170;-76
2021/04/02 02:34:41;;;;;;;0.50;0.50;;;6.40;99.90;;;;;;4972017;29;20162;-77
2021/04/02 02:37:07;;;;;;;1.23;0.50;;;6.50;99.90;;;;;;4958173;29;20234;-77
2021/04/02 02:39:33;;;;;;;0.43;0.43;;;6.80;99.90;;;;;;4958069;29;20258;-76
2021/04/02 02:42:03;;;;;;;1.45;0.95;;;6.70;99.90;;;;;;4952215;29;20241;-77
2021/04/02 02:44:28;;;;;;;3.60;1.95;;;6.70;99.90;;;;;;4972383;29;20166;-77
2021/04/02 02:46:54;;;;;;;0.55;0.55;;;6.70;99.90;;;;;;4972503;29;20246;-77
2021/04/02 02:49:22;;;;;;;1.17;1.17;;;6.70;99.90;;;;;;4962541;29;20669;-76
2021/04/02 02:51:49;;;;;;;0.88;0.88;;;6.90;99.90;;;;;;4956821;29;20182;-76
2021/04/02 02:54:18;;;;;;;1.40;1.10;;;6.90;99.90;;;;;;4956843;29;20163;-77
2021/04/02 02:56:46;;;;;;;1.65;0.40;;;6.90;99.90;;;;;;4956660;29;20191;-77
2021/04/02 02:59:16;;;;;;;0.35;0.35;;;6.80;99.90;;;;;;4956592;29;20218;-77
2021/04/02 03:01:44;;;;;;;0.55;0.55;;;6.80;99.90;;;;;;4956506;29;20210;-78
2021/04/02 03:04:11;;;;;;;0.35;0.35;;;6.80;99.90;;;;;;4946796;29;20178;-77
2021/04/02 03:06:40;;;;;;;0.30;0.30;;;6.60;99.90;;;;;;4972665;29;20175;-77
2021/04/02 03:09:08;;;;;;;1.02;1.02;;;6.60;99.90;;;;;;4972706;29;20162;-75
2021/04/02 03:11:35;;;;;;;0.30;0.30;;;6.80;99.90;;;;;;4967655;29;20167;-77
2021/04/02 03:14:01;;;;;;;0.93;0.93;;;6.60;99.90;;;;;;4969525;29;20607;-76
2021/04/02 03:16:27;;;;;;;0.52;0.52;;;6.40;99.90;;;;;;4958095;29;20202;-77
2021/04/02 03:18:57;;;;;;;0.63;0.63;;;6.50;99.90;;;;;;4958093;29;20583;-76
2021/04/02 03:21:23;;;;;;;1.00;1.00;;;6.40;99.90;;;;;;4940508;29;20235;-76
2021/04/02 03:23:52;;;;;;;0.95;0.95;;;6.40;99.90;;;;;;4957547;29;20191;-75
2021/04/02 03:26:19;;;;;;;0.22;0.22;;;6.60;99.90;;;;;;4958472;29;20708;-76
2021/04/02 03:28:47;;;;;;;0.52;0.52;;;6.60;99.90;;;;;;4941977;29;20306;-75
2021/04/02 03:31:13;;;;;;;1.65;0.93;;;6.50;99.90;;;;;;4957862;29;20163;-75
2021/04/02 03:33:45;;;;;;;1.48;1.33;;;6.50;99.90;;;;;;4957590;29;20197;-75
2021/04/02 03:36:13;;;;;;;1.30;1.30;;;6.60;99.90;;;;;;4956443;29;20167;-76
2021/04/02 03:38:45;;;;;;;0.35;0.35;;;6.70;99.90;;;;;;4955969;29;20205;-76
2021/04/02 03:41:14;;;;;;;2.60;1.48;;;6.60;99.90;;;;;;4956730;29;20202;-76
2021/04/02 03:43:42;;;;;;;0.90;0.90;;;6.50;99.90;;;;;;4956358;29;20257;-76
2021/04/02 03:46:10;;;;;;;0.25;0.25;;;6.20;99.90;;;;;;4956239;29;20175;-75
2021/04/02 03:48:39;;;;;;;0.68;0.68;;;6.40;99.90;;;;;;4956197;29;20225;-76
2021/04/02 03:51:08;;;;;;;15.98;1.45;;;6.40;99.90;;;;;;4956771;29;20215;-75
2021/04/02 03:53:54;;;;;;;1.13;0.93;;;6.40;99.90;;;;;;4939013;29;20270;-76
2021/04/02 03:56:27;;;;;;;4.10;1.45;;;6.00;99.90;;;;;;4955763;29;20225;-75
2021/04/02 03:58:54;;;;;;;0.47;0.47;;;5.90;99.90;;;;;;4955959;29;20166;-76
2021/04/02 04:01:23;;;;;;;0.73;0.73;;;6.00;99.90;;;;;;4956091;29;20198;-75
2021/04/02 04:03:50;;;;;;;1.13;1.10;;;5.80;99.90;;;;;;4955954;29;20174;-75
2021/04/02 04:06:19;;;;;;;0.30;0.30;;;6.00;99.90;;;;;;4955979;29;20253;-77
2021/04/02 04:08:47;;;;;;;1.77;0.95;;;6.00;99.90;;;;;;4955898;29;20570;-76
2021/04/02 04:11:16;;;;;;;0.50;0.50;;;6.10;99.90;;;;;;4956082;29;20162;-76
2021/04/02 04:13:45;;;;;;;0.50;0.50;;;6.00;99.90;;;;;;4955695;29;20222;-77
2021/04/02 04:16:13;;;;;;;0.47;0.47;;;6.00;99.90;;;;;;4955260;28;20593;-75
2021/04/02 04:18:39;;;;;;;0.50;0.50;;;6.00;99.90;;;;;;4955438;29;20259;-77
2021/04/02 04:21:07;;;;;;;0.60;0.60;;;6.00;99.90;;;;;;4955779;28;20696;-75
2021/04/02 04:23:34;;;;;;;0.50;0.50;;;6.10;99.90;;;;;;4959473;29;20262;-76
2021/04/02 04:26:00;;;;;;;0.25;0.25;;;6.00;99.90;;;;;;4941334;29;20268;-76
2021/04/02 04:28:27;;;;;;;2.28;0.77;;;6.00;99.90;;;;;;4958288;29;20194;-76
2021/04/02 04:30:58;;;;;;;0.60;0.60;;;5.90;99.90;;;;;;4957806;29;20245;-77
2021/04/02 04:33:25;;;;;;;0.70;0.60;;;5.90;99.90;;;;;;4940260;29;20171;-74
2021/04/02 04:35:52;;;;;;;0.63;0.50;;;5.80;99.90;;;;;;4956951;29;20170;-75
2021/04/02 04:38:19;;;;;;;0.20;0.20;;;5.80;99.90;;;;;;4956050;29;20281;-74
2021/04/02 04:40:46;;;;;;;0.40;0.40;;;5.90;99.90;;;;;;4939615;29;20725;-76
2021/04/02 04:43:13;;;;;;;0.43;0.43;;;5.80;99.90;;;;;;4955667;29;20209;-75
2021/04/02 04:45:40;;;;;;;0.20;0.20;;;5.70;99.90;;;;;;4938201;29;20290;-76
2021/04/02 04:48:06;;;;;;;0.40;0.40;;;5.70;99.90;;;;;;4956715;29;20284;-75
2021/04/02 04:50:32;;;;;;;1.00;0.93;;;5.60;99.90;;;;;;4955809;29;20209;-76
2021/04/02 04:53:14;;;;;;;0.82;0.82;;;5.60;99.90;;;;;;4954981;29;20182;-75
2021/04/02 04:55:41;;;;;;;1.65;1.55;;;5.70;99.90;;;;;;4955229;29;20179;-76
2021/04/02 04:58:19;;;;;;;4.15;2.30;;;5.70;99.90;;;;;;4955313;29;20197;-76
2021/04/02 05:00:46;;;;;;;1.42;0.45;;;5.60;99.90;;;;;;4955598;29;20234;-76
2021/04/02 05:03:18;;;;;;;0.25;0.25;;;5.70;99.90;;;;;;4955192;29;20163;-76
2021/04/02 05:05:45;;;;;;;0.30;0.30;;;5.50;99.90;;;;;;4955939;29;20171;-76
2021/04/02 05:08:15;;;;;;;0.95;0.95;;;5.50;99.90;;;;;;4954931;29;20191;-76
2021/04/02 05:10:43;;;;;;;0.25;0.25;;;5.70;99.90;;;;;;4955183;29;20685;-76
2021/04/02 05:13:10;;;;;;;0.43;0.43;;;5.50;99.90;;;;;;4954982;29;20372;-76
2021/04/02 05:15:37;;;;;;;0.40;0.40;;;5.60;99.90;;;;;;4954858;29;20163;-76
2021/04/02 05:18:04;;;;;;;0.63;0.50;;;5.80;99.90;;;;;;4954922;29;20198;-76
2021/04/02 05:20:39;;;;;;;0.30;0.30;;;5.90;99.90;;;;;;4954704;29;20226;-75
2021/04/02 05:23:04;;;;;;;10.55;1.30;;;5.80;99.90;;;;;;4955129;29;20192;-76
2021/04/02 05:25:30;;;;;;;2.72;1.67;;;5.80;99.90;;;;;;4955329;29;20521;-75
2021/04/02 05:27:55;;;;;;;0.43;0.43;;;5.70;99.90;;;;;;4961595;28;20205;-76
2021/04/02 05:30:21;;;;;;;0.30;0.30;;;5.60;99.90;;;;;;4961685;29;20206;-75
2021/04/02 05:32:47;;;;;;;0.20;0.20;;;5.70;99.90;;;;;;4959290;29;20250;-77
2021/04/02 05:35:13;;;;;;;0.28;0.28;;;5.60;99.90;;;;;;4958410;29;20194;-77
2021/04/02 05:37:38;;;;;;;0.20;0.20;;;5.50;99.90;;;;;;4957882;29;20241;-76
2021/04/02 05:40:05;;;;;;;0.20;0.20;;;5.50;99.90;;;;;;4957986;29;20685;-74
2021/04/02 05:42:32;;;;;;;2.65;1.10;;;5.70;99.90;;;;;;4957739;29;20665;-76
2021/04/02 05:44:59;;;;;;;0.75;0.75;;;5.80;99.90;;;;;;4957699;29;20623;-76
2021/04/02 05:47:26;;;;;;;0.28;0.28;;;6.00;99.90;;;;;;4957955;29;20214;-76
2021/04/02 05:49:54;;;;;;;1.90;1.80;;;5.90;99.90;;;;;;4958403;29;20166;-76
2021/04/02 05:52:23;;;;;;;0.38;0.38;;;5.90;99.90;;;;;;4959250;29;20222;-76
2021/04/02 05:54:51;;;;;;;0.70;0.70;;;6.00;99.90;;;;;;4958749;29;20163;-76
2021/04/02 05:57:18;;;;;;;0.40;0.40;;;6.00;99.90;;;;;;4958467;29;20206;-76
2021/04/02 05:59:43;;;;;;;0.52;0.43;;;6.10;99.90;;;;;;4958018;29;20275;-77
2021/04/02 06:02:12;;;;;;;0.93;0.93;;;6.00;99.90;;;;;;4941140;29;20620;-76
2021/04/02 06:04:38;;;;;;;0.35;0.35;;;6.00;99.90;;;;;;4959267;29;20165;-77
2021/04/02 06:07:04;;;;;;;0.75;0.38;;;5.80;99.90;;;;;;4959404;29;20670;-76
2021/04/02 06:09:30;;;;;;;1.85;1.08;;;5.80;99.90;;;;;;4959191;29;20174;-75
2021/04/02 06:11:57;;;;;;;1.85;0.82;;;6.00;99.90;;;;;;4941304;29;20175;-76
2021/04/02 06:14:23;;;;;;;0.77;0.77;;;6.20;99.90;;;;;;4942015;29;20261;-75
2021/04/02 06:16:49;;;;;;;0.65;0.65;;;6.40;99.90;;;;;;4940910;29;20318;-76
2021/04/02 06:19:15;;;;;;;9.68;2.17;;;6.30;99.90;;;;;;4958131;29;20570;-76
2021/04/02 06:21:57;;;;;;;0.30;0.30;;;6.40;99.90;;;;;;4959592;29;20198;-77
2021/04/02 06:24:42;;;;;;;10.02;1.20;;;6.40;99.90;;;;;;4960619;29;20237;-76
2021/04/02 06:27:09;;;;;;;0.22;0.22;;;6.30;99.90;;;;;;4958911;29;20187;-76
2021/04/02 06:30:01;;;;;;;0.47;0.45;;;6.00;99.90;;;;;;4959361;29;20163;-75
2021/04/02 06:32:36;;;;;;;0.20;0.20;;;6.10;99.90;;;;;;4959469;28;20162;-79
2021/04/02 06:35:08;;;;;;;1.13;0.93;;;6.30;99.90;;;;;;4961554;28;20692;-78
2021/04/02 06:37:35;;;;;;;0.40;0.40;;;6.20;99.90;;;;;;4978907;28;20185;-77
2021/04/02 06:40:00;;;;;;;0.40;0.40;;;6.00;99.90;;;;;;4978546;28;20284;-78
2021/04/02 06:42:33;;;;;;;0.30;0.30;;;6.20;99.90;;;;;;4978499;28;20197;-77
2021/04/02 06:45:06;;;;;;;0.80;0.80;;;6.20;99.90;;;;;;4977343;28;20158;-76
2021/04/02 06:47:33;;;;;;;0.75;0.75;;;6.30;99.90;;;;;;4970308;28;20193;-77
2021/04/02 06:49:59;;;;;;;0.50;0.50;;;6.50;99.90;;;;;;4978031;28;20205;-78
2021/04/02 06:52:25;;;;;;;0.40;0.40;;;6.70;99.90;;;;;;4978008;28;20181;-77
2021/04/02 06:54:54;;;;;;;4.50;1.05;;;6.80;99.90;;;;;;4979008;28;20165;-77
2021/04/02 06:57:23;;;;;;;0.22;0.22;;;6.70;99.90;;;;;;4978477;28;20193;-77
2021/04/02 06:59:53;;;;;;;0.60;0.60;;;6.80;99.90;;;;;;4978736;28;20679;-78
2021/04/02 07:02:20;;;;;;;0.40;0.40;;;6.90;99.90;;;;;;4979187;28;20177;-79
2021/04/02 07:04:51;;;;;;;0.20;0.20;;;7.00;99.90;;;;;;4961901;28;20184;-77
2021/04/02 07:07:18;;;;;;;2.53;0.50;;;7.10;99.90;;;;;;4964086;28;20190;-77
2021/04/02 07:09:44;;;;;;;0.30;0.30;;;7.10;99.90;;;;;;4991408;28;20197;-77
2021/04/02 07:12:11;;;;;;;1.13;1.10;;;7.10;99.90;;;;;;4994180;28;20173;-76
2021/04/02 07:14:39;;;;;;;0.30;0.30;;;7.20;99.90;;;;;;4995189;28;20149;-77
2021/04/02 07:17:05;;;;;;;0.52;0.30;;;7.40;99.90;;;;;;4996300;28;20186;-77
2021/04/02 07:19:32;;;;;;;10.15;0.98;;;7.60;99.90;;;;;;4994982;28;20245;-77
2021/04/02 07:21:58;;;;;;;0.38;0.38;;;7.60;99.90;;;;;;4993124;28;20174;-77
2021/04/02 07:24:24;;;;;;;0.30;0.30;;;7.60;99.90;;;;;;4984773;28;20185;-79
2021/04/02 07:26:51;;;;;;;0.20;0.20;;;7.70;99.90;;;;;;4985677;28;20194;-77
2021/04/02 07:29:19;;;;;;;1.17;0.50;;;7.60;99.90;;;;;;4978542;28;20178;-75
2021/04/02 07:31:46;;;;;;;8.77;0.73;;;7.70;99.90;;;;;;4972177;28;20646;-80
2021/04/02 07:34:13;;;;;;;0.20;0.20;;;7.90;99.90;;;;;;4952399;29;20166;-78
2021/04/02 07:36:40;;;;;;;0.50;0.50;;;7.90;99.90;;;;;;4971684;29;20212;-81
2021/04/02 07:39:07;;;;;;;0.20;0.20;;;8.00;99.90;;;;;;4971827;29;20163;-77
2021/04/02 07:41:46;;;;;;;0.30;0.30;;;8.00;99.90;;;;;;4943770;29;20298;-76
2021/04/02 07:44:17;;;;;;;0.50;0.50;;;7.80;99.90;;;;;;4963519;29;20163;-76
2021/04/02 07:47:08;;;;;;;0.40;0.40;;;8.00;99.90;;;;;;4965352;29;20186;-76
2021/04/02 07:50:00;;;;;;;0.20;0.20;;;8.10;99.90;;;;;;4962189;28;20178;-74
2021/04/02 07:52:37;;;;;;;0.40;0.40;;;8.20;99.90;;;;;;4960662;29;20166;-76
2021/04/02 07:55:07;;;;;;;0.52;0.52;;;8.20;99.90;;;;;;4959748;29;20708;-76
2021/04/02 07:58:00;;;;;;;0.30;0.30;;;8.00;99.90;;;;;;4958258;29;20197;-77
2021/04/02 08:00:30;;;;;;;2.38;0.70;;;8.10;99.90;;;;;;4957167;29;20206;-76
2021/04/02 08:03:16;;;;;;;2.90;1.25;;;8.20;99.90;;;;;;4940075;29;20167;-77
2021/04/02 08:06:07;;;;;;;0.25;0.25;;;8.10;99.90;;;;;;4943219;29;20180;-76
2021/04/02 08:08:47;;;;;;;1.05;1.05;;;7.90;99.90;;;;;;4953107;29;20221;-76
2021/04/02 08:11:31;;;;;;;0.80;0.80;;;7.70;99.90;;;;;;4960537;29;20170;-75
2021/04/02 08:14:08;;;;;;;0.65;0.50;;;7.90;99.90;;;;;;4971978;29;20163;-76
2021/04/02 08:16:50;;;;;;;1.20;1.20;;;7.90;99.90;;;;;;4975899;29;20174;-76
2021/04/02 08:19:17;;;;;;;0.45;0.45;;;8.20;99.90;;;;;;4952270;29;20174;-77
2021/04/02 08:21:58;;;;;;;0.45;0.45;;;8.30;99.90;;;;;;4968357;29;20233;-76
2021/04/02 08:24:27;;;;;;;0.65;0.65;;;8.40;99.90;;;;;;4971450;29;20744;-76
2021/04/02 08:26:53;;;;;;;0.28;0.28;;;8.30;99.90;;;;;;4969734;29;20195;-78
2021/04/02 08:29:21;;;;;;;0.43;0.43;;;8.30;99.90;;;;;;4967766;29;20174;-77
2021/04/02 08:32:13;;;;;;;0.30;0.30;;;8.60;99.90;;;;;;4942184;29;20166;-77
2021/04/02 08:34:40;;;;;;;0.65;0.65;;;9.00;99.90;;;;;;4954879;29;20194;-77
2021/04/02 08:37:12;;;;;;;0.98;0.60;;;9.30;99.90;;;;;;4962035;29;20552;-76
2021/04/02 08:39:39;;;;;;;0.75;0.47;;;9.40;99.90;;;;;;4955071;29;20523;-75
2021/04/02 08:42:07;;;;;;;0.85;0.85;;;9.30;99.90;;;;;;4956946;29;20254;-76
2021/04/02 08:44:41;;;;;;;15.32;1.75;;;9.30;99.90;;;;;;4961784;29;20163;-76
2021/04/02 08:47:09;;;;;;;0.50;0.50;;;9.50;99.90;;;;;;4960547;29;20281;-77
2021/04/02 08:49:45;;;;;;;0.28;0.28;;;9.60;99.90;;;;;;4962836;29;20210;-76
2021/04/02 08:52:16;;;;;;;0.90;0.80;;;9.40;99.90;;;;;;4963563;29;20217;-77
2021/04/02 08:54:44;;;;;;;0.40;0.40;;;9.20;99.90;;;;;;4962197;29;20256;-75
2021/04/02 08:57:11;;;;;;;0.30;0.30;;;9.00;99.90;;;;;;4962505;29;20206;-76
2021/04/02 08:59:40;;;;;;;0.95;0.95;;;8.80;99.90;;;;;;4945560;29;20242;-75
2021/04/02 09:02:07;;;;;;;1.15;1.00;;;8.80;99.90;;;;;;4963758;28;20261;-76
2021/04/02 09:04:33;;;;;;;0.30;0.30;;;9.20;99.90;;;;;;4969303;28;20174;-78
2021/04/02 09:06:59;;;;;;;0.63;0.50;;;9.40;99.90;;;;;;4951748;28;20654;-77
2021/04/02 09:09:28;;;;;;;0.75;0.70;;;9.80;99.90;;;;;;4963462;28;20213;-78
2021/04/02 09:11:55;;;;;;;0.50;0.50;;;10.40;99.90;;;;;;4952990;28;20226;-77
2021/04/02 09:14:22;;;;;;;1.80;1.15;;;10.60;99.90;;;;;;4963427;28;20181;-77
2021/04/02 09:16:49;;;;;;;6.47;2.30;;;10.90;99.90;;;;;;4951459;29;20205;-76
2021/04/02 09:19:16;;;;;;;1.67;0.63;;;10.90;99.90;;;;;;4960549;28;20186;-77
2021/04/02 09:21:43;;;;;;;0.93;0.85;;;10.70;99.90;;;;;;4958520;29;20684;-74
2021/04/02 09:24:09;;;;;;;0.65;0.65;;;10.70;99.90;;;;;;4958680;29;20166;-77
2021/04/02 09:26:44;;;;;;;1.25;1.17;;;10.60;99.90;;;;;;4958642;29;20178;-76
2021/04/02 09:29:11;;;;;;;0.20;0.20;;;10.60;99.90;;;;;;4959705;29;20178;-76
2021/04/02 09:31:41;;;;;;;0.20;0.20;;;10.90;99.90;;;;;;4959405;29;20171;-74
2021/04/02 09:34:10;;;;;;;4.57;0.70;;;11.20;99.90;;;;;;4941514;29;20665;-76
2021/04/02 09:36:40;;;;;;;1.00;0.52;;;11.40;99.90;;;;;;4958677;29;20522;-76
2021/04/02 09:39:22;;;;;;;0.55;0.55;;;11.30;99.90;;;;;;4959155;29;20167;-75
2021/04/02 09:42:00;;;;;;;0.40;0.40;;;11.40;99.90;;;;;;4958573;29;20217;-75
2021/04/02 09:44:28;;;;;;;2.78;1.50;;;11.60;99.90;;;;;;4959015;29;20209;-75
2021/04/02 09:47:08;;;;;;;0.43;0.43;;;11.60;99.90;;;;;;4958608;29;20182;-76
2021/04/02 09:49:36;;;;;;;0.45;0.45;;;11.90;99.90;;;;;;4958822;29;20197;-76
2021/04/02 09:52:04;;;;;;;0.20;0.20;;;12.10;99.90;;;;;;4958255;29;20167;-75
2021/04/02 09:54:31;;;;;;;15.93;2.22;;;11.90;99.90;;;;;;4958648;29;20610;-76
2021/04/02 09:57:06;;;;;;;0.20;0.20;;;11.90;99.90;;;;;;4957913;29;20183;-76
2021/04/02 09:59:32;;;;;;;0.55;0.52;;;12.00;99.90;;;;;;4958178;29;20174;-76
2021/04/02 10:01:58;;;;;;;0.32;0.32;;;12.00;99.90;;;;;;4959552;28;20269;-76
2021/04/02 10:04:26;;;;;;;0.35;0.35;;;11.80;99.90;;;;;;4968715;28;20175;-77
2021/04/02 10:06:51;;;;;;;0.75;0.75;;;11.10;99.90;;;;;;4959654;28;20253;-76
2021/04/02 10:09:17;;;;;;;0.32;0.32;;;11.20;99.90;;;;;;4964789;28;20261;-75
2021/04/02 10:11:49;;;;;;;0.25;0.25;;;11.10;99.90;;;;;;4957406;28;20175;-76
2021/04/02 10:14:16;;;;;;;0.35;0.35;;;10.70;99.90;;;;;;4939643;29;20182;-76
2021/04/02 10:16:45;;;;;;;0.50;0.50;;;10.40;99.90;;;;;;4958526;29;20203;-74
2021/04/02 10:19:10;;;;;;;0.40;0.40;;;10.30;99.90;;;;;;4959002;28;20155;-74
2021/04/02 10:21:36;;;;;;;0.45;0.45;;;10.20;99.90;;;;;;4957722;29;20210;-75
2021/04/02 10:24:02;;;;;;;0.40;0.40;;;10.30;99.90;;;;;;4957703;29;20166;-75
2021/04/02 10:26:28;;;;;;;0.50;0.50;;;10.40;99.90;;;;;;4957297;28;20178;-75
2021/04/02 10:28:54;;;;;;;0.22;0.22;;;10.60;99.90;;;;;;4957732;29;20163;-76
2021/04/02 10:31:20;;;;;;;0.60;0.60;;;10.50;99.90;;;;;;4940277;29;20237;-76
2021/04/02 10:33:46;;;;;;;0.35;0.35;;;10.70;99.90;;;;;;4956695;29;20174;-76
2021/04/02 10:36:12;;;;;;;0.40;0.40;;;10.70;99.90;;;;;;4956883;29;20245;-77
2021/04/02 10:38:37;;;;;;;0.73;0.73;;;11.00;99.90;;;;;;4956490;28;20230;-77
2021/04/02 10:41:03;;;;;;;0.75;0.75;;;11.10;99.90;;;;;;4956754;29;20237;-77
2021/04/02 10:43:31;;;;;;;0.85;0.85;;;11.50;99.90;;;;;;4957254;29;20633;-77
2021/04/02 10:45:57;;;;;;;2.28;1.23;;;11.60;99.90;;;;;;4939358;29;20649;-76
2021/04/02 10:48:23;;;;;;;0.65;0.65;;;11.90;99.90;;;;;;4939454;29;20689;-77
2021/04/02 10:50:49;;;;;;;1.02;0.77;;;12.10;99.90;;;;;;4957086;29;20202;-75
2021/04/02 10:53:15;;;;;;;3.88;0.40;;;12.00;99.90;;;;;;4956504;29;20630;-76
2021/04/02 10:55:41;;;;;;;0.35;0.35;;;11.90;99.90;;;;;;4956561;29;20179;-76
2021/04/02 10:58:07;;;;;;;0.50;0.50;;;11.70;99.90;;;;;;4956317;29;20202;-76
2021/04/02 11:00:37;;;;;;;5.40;1.85;;;10.90;99.90;;;;;;4964658;28;20593;-77
2021/04/02 11:03:03;;;;;;;1.67;1.58;;;10.60;99.90;;;;;;4973793;28;20305;-78
2021/04/02 11:05:29;;;;;;;0.80;0.73;;;10.60;99.90;;;;;;4939137;29;20185;-75
2021/04/02 11:07:55;;;;;;;0.63;0.43;;;10.90;99.90;;;;;;4956397;29;20190;-75
2021/04/02 11:10:21;;;;;;;0.93;0.52;;;11.20;99.90;;;;;;4939001;29;20174;-77
2021/04/02 11:12:47;;;;;;;1.65;0.40;;;11.30;99.90;;;;;;4938697;29;20222;-77
2021/04/02 11:15:13;;;;;;;4.30;0.75;;;11.30;99.90;;;;;;4956148;29;20257;-77
2021/04/02 11:17:42;;;;;;;0.20;0.20;;;11.20;99.90;;;;;;4956244;29;20214;-76
2021/04/02 11:20:10;;;;;;;3.63;1.00;;;11.30;99.90;;;;;;4940188;28;20297;-78
2021/04/02 11:22:38;;;;;;;0.30;0.30;;;10.90;99.90;;;;;;4964020;28;20642;-78
2021/04/02 11:25:08;;;;;;;2.38;1.35;;;10.80;99.90;;;;;;4955277;28;20182;-77
2021/04/02 11:27:34;;;;;;;0.22;0.22;;;10.70;99.90;;;;;;4955561;28;20693;-77
2021/04/02 11:30:00;;;;;;;1.75;0.93;;;10.70;99.90;;;;;;4955980;29;20181;-78
2021/04/02 11:32:26;;;;;;;0.30;0.30;;;10.80;99.90;;;;;;4955642;28;20261;-76
2021/04/02 11:34:51;;;;;;;5.90;0.57;;;10.90;99.90;;;;;;4955560;29;20164;-80
2021/04/02 11:37:18;;;;;;;0.32;0.32;;;11.20;99.90;;;;;;4955920;29;20214;-77
2021/04/02 11:39:44;;;;;;;0.40;0.40;;;11.20;99.90;;;;;;4955673;29;20249;-76
2021/04/02 11:42:09;;;;;;;0.90;0.85;;;11.40;99.90;;;;;;4955921;29;20258;-77
2021/04/02 11:44:35;;;;;;;0.77;0.77;;;11.20;99.90;;;;;;4955560;29;20159;-76
2021/04/02 11:47:01;;;;;;;0.63;0.63;;;11.20;99.90;;;;;;4955429;29;20449;-78
2021/04/02 11:49:26;;;;;;;0.95;0.73;;;11.20;99.90;;;;;;4955753;29;20221;-76
2021/04/02 11:51:53;;;;;;;0.50;0.50;;;11.50;99.90;;;;;;4955116;28;20181;-76
2021/04/02 11:54:19;;;;;;;6.07;1.65;;;11.70;99.90;;;;;;4958593;28;20191;-77
2021/04/02 11:56:44;;;;;;;0.20;0.20;;;11.70;99.90;;;;;;4938181;29;20295;-75
2021/04/02 11:59:10;;;;;;;0.55;0.55;;;12.00;99.90;;;;;;4963071;28;20538;-76
2021/04/02 12:01:36;;;;;;;0.75;0.70;;;12.00;99.90;;;;;;4956781;28;20263;-76
2021/04/02 12:04:01;;;;;;;0.47;0.47;;;12.00;99.90;;;;;;4949638;29;20518;-76
2021/04/02 12:06:27;;;;;;;0.30;0.30;;;12.00;99.90;;;;;;4954899;28;20496;-78
2021/04/02 12:08:53;;;;;;;8.48;1.25;;;12.30;99.90;;;;;;4958107;28;20183;-77
2021/04/02 12:11:18;;;;;;;0.40;0.40;;;12.40;99.90;;;;;;4955357;28;20162;-79
2021/04/02 12:13:44;;;;;;;0.75;0.75;;;12.10;99.90;;;;;;4952911;28;20177;-77
2021/04/02 12:16:09;;;;;;;0.68;0.68;;;11.70;99.90;;;;;;4960855;28;20190;-77
2021/04/02 12:18:35;;;;;;;20.88;1.77;;;11.50;99.90;;;;;;4954407;28;20233;-77
2021/04/02 12:21:01;;;;;;;0.75;0.63;;;11.30;99.90;;;;;;4952847;29;20238;-76
2021/04/02 12:23:26;;;;;;;1.80;0.93;;;11.30;99.90;;;;;;4953866;28;20186;-78
2021/04/02 12:25:52;;;;;;;1.30;1.20;;;11.10;99.90;;;;;;4954099;29;20171;-77
2021/04/02 12:28:18;;;;;;;0.82;0.82;;;11.40;99.90;;;;;;4954017;29;20195;-76
2021/04/02 12:30:46;;;;;;;0.68;0.68;;;11.60;99.90;;;;;;4954267;29;20238;-75
2021/04/02 12:33:12;;;;;;;1.15;1.08;;;11.50;99.90;;;;;;4954260;29;20606;-75
2021/04/02 12:35:37;;;;;;;12.43;1.30;;;11.60;99.90;;;;;;4954890;29;20170;-74
2021/04/02 12:38:09;;;;;;;0.65;0.60;;;11.40;99.90;;;;;;4954511;29;20182;-74
2021/04/02 12:40:35;;;;;;;0.63;0.63;;;11.50;99.90;;;;;;4955102;29;20241;-76
2021/04/02 12:43:01;;;;;;;0.70;0.70;;;11.40;99.90;;;;;;4954840;29;20170;-74
2021/04/02 12:45:27;;;;;;;3.03;1.10;;;11.50;99.90;;;;;;4954866;29;20627;-74
2021/04/02 12:47:54;;;;;;;1.27;0.82;;;11.60;99.90;;;;;;4954554;29;20194;-75
2021/04/02 12:50:22;;;;;;;1.15;1.02;;;11.60;99.90;;;;;;4955181;29;20179;-75
2021/04/02 12:52:48;;;;;;;8.82;1.65;;;11.90;99.90;;;;;;4954953;29;20541;-77
2021/04/02 12:55:16;;;;;;;0.50;0.50;;;11.90;99.90;;;;;;4954669;29;20254;-74
2021/04/02 12:57:43;;;;;;;4.85;3.58;;;11.80;99.90;;;;;;4954349;29;20194;-76
2021/04/02 13:00:12;;;;;;;0.90;0.90;;;11.80;99.90;;;;;;4954548;29;20276;-75
2021/04/02 13:02:38;;;;;;;2.00;1.67;;;12.00;99.90;;;;;;4954524;29;20196;-75